createdAt,value
2023-03-23T16:00:29.143Z,95766.00
2023-03-23T16:04:33.668Z,95761.00
2023-03-23T16:08:54.810Z,95758.00
2023-03-23T16:12:58.414Z,95769.00
2023-03-23T16:17:02.852Z,95774.00
2023-03-23T16:21:06.349Z,95771.00
2023-03-23T16:25:10.354Z,95779.00
2023-03-23T16:29:40.096Z,95779.00
2023-03-23T16:33:43.876Z,95779.00
2023-03-23T16:37:49.297Z,95783.00
2023-03-23T16:41:52.793Z,95779.00
2023-03-23T16:46:03.274Z,95775.00
2023-03-23T16:50:11.807Z,95786.00
2023-03-23T16:54:14.919Z,95796.00
2023-03-23T16:58:18.472Z,95790.00
2023-03-23T17:02:23.513Z,95779.00
2023-03-23T17:06:28.940Z,95773.00
2023-03-23T17:10:34.379Z,95775.00
2023-03-23T17:14:37.517Z,95770.00
2023-03-23T17:18:40.828Z,95777.00
2023-03-23T17:22:45.403Z,95780.00
2023-03-23T17:26:48.640Z,95787.00
2023-03-23T17:30:53.654Z,95786.00
2023-03-23T17:34:56.722Z,95793.00
2023-03-23T17:39:02.226Z,95793.00
2023-03-23T17:43:05.345Z,95797.00
2023-03-23T17:47:08.524Z,95794.00
2023-03-23T17:51:11.990Z,95795.00
2023-03-23T17:55:18.719Z,95797.00
2023-03-23T17:59:24.802Z,95802.00
2023-03-23T18:03:28.090Z,95802.00
2023-03-23T18:07:33.741Z,95799.00
2023-03-23T18:11:39.143Z,95791.00
2023-03-23T18:15:46.803Z,95795.00
2023-03-23T18:19:55.165Z,95785.00
2023-03-23T18:23:59.502Z,95784.00
2023-03-23T18:28:05.477Z,95783.00
2023-03-23T18:32:13.476Z,95784.00
2023-03-23T18:36:22.608Z,95777.00
2023-03-23T18:40:26.804Z,95776.00
2023-03-23T18:44:32.190Z,95772.00
2023-03-23T18:48:38.800Z,95769.00
2023-03-23T18:52:42.274Z,95771.00
2023-03-23T18:56:45.478Z,95766.00
2023-03-23T19:00:53.884Z,95768.00
2023-03-23T19:04:59.808Z,95768.00
2023-03-23T19:09:02.989Z,95768.00
2023-03-23T19:13:06.052Z,95764.00
2023-03-23T19:17:13.381Z,95776.00
2023-03-23T19:21:19.837Z,95768.00
2023-03-23T19:25:30.307Z,95762.00
2023-03-23T19:29:37.766Z,95758.00
2023-03-23T19:33:43.677Z,95754.00
2023-03-23T19:37:46.798Z,95751.00
2023-03-23T19:41:50.556Z,95758.00
2023-03-23T19:45:53.774Z,95759.00
2023-03-23T19:50:00.002Z,95752.00
2023-03-23T19:54:03.186Z,95758.00
2023-03-23T19:58:08.362Z,95760.00
2023-03-23T20:02:14.861Z,95763.00
2023-03-23T20:06:23.630Z,95767.00
2023-03-23T20:10:34.561Z,95760.00
2023-03-23T20:14:38.293Z,95763.00
2023-03-23T20:18:41.762Z,95766.00
2023-03-23T20:22:46.586Z,95765.00
2023-03-23T20:26:52.969Z,95768.00
2023-03-23T20:31:19.997Z,95774.00
2023-03-23T20:35:29.428Z,95768.00
2023-03-23T20:39:37.931Z,95768.00
2023-03-23T20:43:42.655Z,95770.00
2023-03-23T20:47:45.736Z,95772.00
2023-03-23T20:51:51.465Z,95773.00
2023-03-23T20:55:57.791Z,95769.00
2023-03-23T21:00:01.169Z,95765.00
2023-03-23T21:04:15.587Z,95774.00
2023-03-23T21:08:23.175Z,95776.00
2023-03-23T21:12:30.210Z,95762.00
2023-03-23T21:16:33.368Z,95758.00
2023-03-23T21:20:37.769Z,95759.00
2023-03-23T21:24:43.295Z,95755.00
2023-03-23T21:28:50.739Z,95746.00
2023-03-23T21:32:56.582Z,95749.00
2023-03-23T21:36:59.777Z,95752.00
2023-03-23T21:41:08.712Z,95758.00
2023-03-23T21:45:18.742Z,95747.00
2023-03-23T21:49:21.943Z,95747.00
2023-03-23T21:53:27.065Z,95745.00
2023-03-23T21:57:30.374Z,95757.00
2023-03-23T22:01:37.244Z,95757.00
2023-03-23T22:05:41.148Z,95746.00
2023-03-23T22:09:45.050Z,95744.00
2023-03-23T22:13:49.215Z,95741.00
2023-03-23T22:17:53.899Z,95748.00
2023-03-23T22:22:05.966Z,95740.00
2023-03-23T22:26:10.272Z,95734.00
2023-03-23T22:30:17.058Z,95732.00
2023-03-23T22:34:24.332Z,95730.00
2023-03-23T22:38:27.771Z,95717.00
2023-03-23T22:42:31.204Z,95720.00
2023-03-23T22:46:36.945Z,95718.00
2023-03-23T22:50:41.487Z,95727.00
2023-03-23T22:54:44.625Z,95716.00
2023-03-23T22:58:52.144Z,95716.00
2023-03-23T23:02:57.044Z,95709.00
2023-03-23T23:07:12.448Z,95700.00
2023-03-23T23:11:19.310Z,95711.00
2023-03-23T23:15:24.471Z,95697.00
2023-03-23T23:19:27.826Z,95683.00
2023-03-23T23:23:37.572Z,95686.00
2023-03-23T23:27:41.182Z,95679.00
2023-03-23T23:31:44.500Z,95670.00
2023-03-23T23:35:48.516Z,95667.00
2023-03-23T23:39:53.743Z,95676.00
2023-03-23T23:44:00.201Z,95673.00
2023-03-23T23:48:03.762Z,95670.00
2023-03-23T23:52:08.767Z,95662.00
2023-03-23T23:56:19.452Z,95663.00
